Slovan, Pennsylvania
Current Conditions -  °F | °C
As of 6:51 AM on Monday 26 Jan 2015 (Local Time) from KPIT Reporting Station
Light Snow Light Snow  
Wind Chill: 21°   Ceiling: 800
Heat Index: 28°   Visibility: 5mi
Dew Point: 26°   Wind: 7mph
Humidity: 92%   Direction: 40°NE
Pressure: 29.68"   Gusts: NA
Location:  40.36°N, 80.39°W
Report Text: KPIT 261151Z 04006KT 5SM -SN OVC008 M02/M03 A2968 RMK AO2 SLP070 P0001 60004 70033 T10221033 11017 21022 55004
Loading
Personal Weather Stations






























Interactive Weather Map New forecast layout! Learn more

10-Day Weather Forecast

Advertisements
Track Severe Weather on mobile